createdAt,value
2018-09-25T00:01:47.150Z,8.72
2018-09-25T00:04:20.204Z,8.67
2018-09-25T00:06:53.351Z,8.64
2018-09-25T00:09:26.510Z,8.61
2018-09-25T00:11:59.718Z,8.73
2018-09-25T00:14:32.918Z,8.76
2018-09-25T00:17:06.112Z,8.64
2018-09-25T00:19:39.204Z,8.56
2018-09-25T00:22:12.325Z,8.47
2018-09-25T00:24:45.291Z,8.39
2018-09-25T00:27:18.475Z,8.33
2018-09-25T00:29:51.483Z,8.39
2018-09-25T00:32:24.734Z,8.40
2018-09-25T00:34:57.919Z,8.40
2018-09-25T00:37:31.018Z,8.28
2018-09-25T00:40:04.136Z,8.13
2018-09-25T00:42:37.347Z,8.02
2018-09-25T00:45:10.446Z,7.97
2018-09-25T00:47:43.571Z,8.02
2018-09-25T00:50:16.654Z,8.00
2018-09-25T00:52:49.881Z,8.01
2018-09-25T00:55:23.042Z,7.96
2018-09-25T00:57:56.191Z,7.84
2018-09-25T01:00:29.321Z,7.88
2018-09-25T01:03:02.470Z,7.83
2018-09-25T01:05:35.750Z,7.88
2018-09-25T01:08:08.943Z,7.90
2018-09-25T01:10:42.222Z,7.85
2018-09-25T01:13:15.632Z,7.78
2018-09-25T01:15:48.804Z,7.68
2018-09-25T01:18:21.905Z,7.70
2018-09-25T01:20:54.925Z,7.78
2018-09-25T01:23:28.200Z,7.86
2018-09-25T01:26:01.225Z,7.93
2018-09-25T01:28:34.452Z,7.91
2018-09-25T01:31:07.627Z,7.84
2018-09-25T01:33:40.819Z,7.77
2018-09-25T01:36:14.049Z,7.86
2018-09-25T01:38:47.254Z,7.89
2018-09-25T01:41:20.430Z,7.87
2018-09-25T01:43:53.499Z,7.98
2018-09-25T01:46:26.680Z,8.05
2018-09-25T01:49:00.024Z,7.97
2018-09-25T01:51:33.191Z,7.96
2018-09-25T01:54:06.564Z,8.11
2018-09-25T01:56:39.625Z,8.29
2018-09-25T01:59:27.578Z,8.31
2018-09-25T02:02:00.796Z,8.32
2018-09-25T02:04:33.988Z,8.32
2018-09-25T02:07:07.085Z,8.39
2018-09-25T02:09:40.252Z,8.34
2018-09-25T02:12:13.342Z,8.42
2018-09-25T02:14:46.693Z,8.33
2018-09-25T02:17:19.696Z,8.22
2018-09-25T02:19:52.941Z,8.17
2018-09-25T02:22:25.906Z,8.02
2018-09-25T02:24:59.125Z,7.81
2018-09-25T02:27:32.179Z,7.65
2018-09-25T02:30:05.394Z,7.50
2018-09-25T02:32:38.459Z,7.46
2018-09-25T02:35:11.692Z,7.41
2018-09-25T02:37:44.834Z,7.40
2018-09-25T02:40:18.032Z,7.38
2018-09-25T02:42:51.414Z,7.32
2018-09-25T02:45:24.659Z,7.34
2018-09-25T02:47:57.709Z,7.39
2018-09-25T02:50:30.689Z,7.30
2018-09-25T02:53:03.676Z,7.27
2018-09-25T02:55:36.839Z,7.23
2018-09-25T02:58:09.978Z,7.22
2018-09-25T03:00:43.058Z,7.17
2018-09-25T03:03:16.165Z,7.22
2018-09-25T03:05:49.186Z,7.23
2018-09-25T03:08:22.214Z,7.14
2018-09-25T03:10:55.371Z,7.03
2018-09-25T03:13:28.504Z,6.92
2018-09-25T03:16:01.723Z,6.88
2018-09-25T03:18:34.745Z,6.83
2018-09-25T03:21:07.725Z,6.81
2018-09-25T03:23:41.032Z,6.77
2018-09-25T03:26:14.144Z,6.71
2018-09-25T03:28:47.255Z,6.73
2018-09-25T03:31:20.266Z,6.74
2018-09-25T03:33:53.429Z,6.74
2018-09-25T03:36:26.662Z,6.74
2018-09-25T03:39:00.073Z,6.75
2018-09-25T03:41:33.559Z,6.77
2018-09-25T03:44:06.593Z,6.75
2018-09-25T03:46:39.851Z,6.75
2018-09-25T03:49:12.854Z,6.74
2018-09-25T03:51:46.005Z,6.71
2018-09-25T03:54:19.142Z,6.69
2018-09-25T03:56:52.287Z,6.65
2018-09-25T03:59:25.506Z,6.56
2018-09-25T04:01:58.678Z,6.47
2018-09-25T04:04:31.837Z,6.45
2018-09-25T04:07:04.876Z,6.41
2018-09-25T04:09:37.942Z,6.37
2018-09-25T04:12:11.266Z,6.38
2018-09-25T04:14:44.403Z,6.41
2018-09-25T04:17:17.597Z,6.34
2018-09-25T04:19:50.863Z,6.34
2018-09-25T04:22:24.025Z,6.35
2018-09-25T04:24:57.418Z,6.36
2018-09-25T04:27:30.506Z,6.37
2018-09-25T04:30:03.502Z,6.42
2018-09-25T04:32:36.771Z,6.41
2018-09-25T04:35:09.989Z,6.39
2018-09-25T04:37:43.028Z,6.37
2018-09-25T04:40:16.215Z,6.35
2018-09-25T04:42:49.448Z,6.30
2018-09-25T04:45:22.437Z,6.27
2018-09-25T04:47:55.643Z,6.22
2018-09-25T04:50:28.760Z,6.16
2018-09-25T04:53:01.857Z,6.11
2018-09-25T04:55:35.056Z,6.09
2018-09-25T04:58:08.049Z,6.07
2018-09-25T05:00:41.239Z,6.09
2018-09-25T05:03:14.313Z,6.13
2018-09-25T05:05:47.398Z,6.11
2018-09-25T05:08:20.617Z,6.11
2018-09-25T05:10:54.836Z,6.12
2018-09-25T05:13:28.250Z,6.11
2018-09-25T05:16:01.165Z,6.11
2018-09-25T05:18:34.230Z,6.08
2018-09-25T05:21:07.235Z,6.10
2018-09-25T05:23:40.393Z,6.12
2018-09-25T05:26:13.434Z,6.20
2018-09-25T05:28:46.629Z,6.26
2018-09-25T05:31:19.981Z,6.30
2018-09-25T05:33:53.158Z,6.35
2018-09-25T05:36:26.271Z,6.40
2018-09-25T05:38:59.430Z,6.47
2018-09-25T05:41:33.101Z,6.57
2018-09-25T05:44:06.170Z,6.66
2018-09-25T05:46:39.279Z,6.88
2018-09-25T05:49:12.521Z,7.09
2018-09-25T05:51:45.470Z,8.27
2018-09-25T05:54:18.618Z,9.85
2018-09-25T05:56:51.724Z,12.00
2018-09-25T05:59:25.009Z,14.24
2018-09-25T06:01:58.166Z,16.27
2018-09-25T06:04:31.386Z,17.89
2018-09-25T06:07:04.432Z,19.42
2018-09-25T06:09:37.683Z,20.38
2018-09-25T06:12:10.727Z,20.01
2018-09-25T06:14:43.933Z,20.52
2018-09-25T06:17:17.104Z,21.88
2018-09-25T06:19:50.346Z,22.91
2018-09-25T06:22:23.591Z,24.08
2018-09-25T06:24:56.778Z,24.93
2018-09-25T06:27:29.940Z,25.01
2018-09-25T06:30:03.078Z,25.30
2018-09-25T06:32:36.201Z,25.36
2018-09-25T06:35:09.488Z,25.52
2018-09-25T06:37:42.602Z,25.89
2018-09-25T06:40:15.855Z,26.76
2018-09-25T06:42:48.958Z,27.29
2018-09-25T06:45:22.033Z,27.42
2018-09-25T06:47:55.213Z,28.41
2018-09-25T06:50:28.340Z,29.08
2018-09-25T06:53:01.463Z,29.01
2018-09-25T06:55:34.551Z,29.09
2018-09-25T06:58:07.535Z,28.79
2018-09-25T07:00:40.630Z,28.03
2018-09-25T07:03:13.849Z,28.56
2018-09-25T07:05:46.958Z,30.00
2018-09-25T07:08:20.146Z,31.45
2018-09-25T07:10:53.333Z,31.10
2018-09-25T07:13:26.391Z,30.85
2018-09-25T07:15:59.715Z,31.88
2018-09-25T07:18:32.757Z,31.93
2018-09-25T07:21:05.906Z,32.47
2018-09-25T07:23:39.187Z,32.97
2018-09-25T07:26:12.303Z,32.87
2018-09-25T07:28:45.430Z,33.33
2018-09-25T07:31:18.655Z,34.27
2018-09-25T07:33:51.924Z,34.72
2018-09-25T07:36:25.070Z,35.31
2018-09-25T07:38:58.102Z,36.01
2018-09-25T07:41:31.225Z,36.55
2018-09-25T07:44:04.278Z,37.39
2018-09-25T07:46:37.494Z,38.38
2018-09-25T07:49:10.805Z,38.78
2018-09-25T07:51:43.974Z,38.06
2018-09-25T07:54:17.195Z,37.76
2018-09-25T07:56:50.349Z,38.23
2018-09-25T07:59:23.384Z,38.93
2018-09-25T08:01:56.421Z,39.72
2018-09-25T08:04:29.744Z,40.41
2018-09-25T08:07:03.088Z,41.05
2018-09-25T08:09:36.106Z,40.35
2018-09-25T08:12:09.038Z,39.09
2018-09-25T08:14:42.044Z,39.89
2018-09-25T08:17:15.503Z,40.47
2018-09-25T08:19:48.661Z,40.16
2018-09-25T08:22:21.883Z,39.28
2018-09-25T08:25:09.753Z,39.29
2018-09-25T08:27:42.986Z,40.08
2018-09-25T08:30:16.163Z,39.67
2018-09-25T08:32:49.386Z,40.26
2018-09-25T08:35:22.427Z,40.27
2018-09-25T08:37:55.566Z,39.22
2018-09-25T08:40:28.726Z,38.51
2018-09-25T08:43:01.957Z,38.28
2018-09-25T08:45:35.108Z,37.70
2018-09-25T08:48:08.205Z,36.06
2018-09-25T08:50:41.257Z,35.47
2018-09-25T08:53:14.267Z,35.46
2018-09-25T08:55:47.461Z,36.11
2018-09-25T08:58:20.540Z,37.08
2018-09-25T09:00:53.677Z,37.66
2018-09-25T09:03:26.873Z,37.83
2018-09-25T09:05:59.906Z,38.14
2018-09-25T09:08:33.082Z,38.40
2018-09-25T09:11:06.108Z,36.70
2018-09-25T09:13:39.265Z,34.66
2018-09-25T09:16:12.658Z,33.55
2018-09-25T09:18:46.347Z,31.68
2018-09-25T09:21:19.593Z,29.05
2018-09-25T09:23:52.907Z,25.81
2018-09-25T09:26:26.040Z,23.59
2018-09-25T09:28:59.325Z,22.35
2018-09-25T09:31:32.563Z,21.02
2018-09-25T09:34:05.912Z,19.62
2018-09-25T09:36:39.157Z,18.61
2018-09-25T09:39:13.779Z,17.88
2018-09-25T09:41:47.053Z,17.22
2018-09-25T09:44:20.093Z,16.80
2018-09-25T09:46:53.299Z,16.51
2018-09-25T09:49:26.484Z,16.37
2018-09-25T09:51:59.746Z,16.13
2018-09-25T09:54:32.818Z,15.94
2018-09-25T09:57:06.029Z,15.82
2018-09-25T09:59:39.178Z,15.56
2018-09-25T10:02:12.194Z,15.56
2018-09-25T10:04:45.421Z,15.64
2018-09-25T10:07:18.525Z,15.81
2018-09-25T10:09:51.582Z,15.77
2018-09-25T10:12:24.836Z,15.76
2018-09-25T10:14:57.949Z,15.77
2018-09-25T10:17:31.079Z,15.96
2018-09-25T10:20:04.365Z,16.10
2018-09-25T10:22:37.456Z,16.07
2018-09-25T10:25:11.066Z,15.83
2018-09-25T10:27:44.100Z,15.86
2018-09-25T10:30:17.312Z,15.96
2018-09-25T10:32:50.403Z,15.95
2018-09-25T10:35:23.622Z,16.02
2018-09-25T10:37:56.786Z,16.06
2018-09-25T10:40:29.792Z,16.23
2018-09-25T10:43:02.917Z,16.35
2018-09-25T10:45:36.080Z,16.24
2018-09-25T10:48:09.258Z,16.44
2018-09-25T10:50:42.675Z,16.85
2018-09-25T10:53:15.751Z,16.93
2018-09-25T10:55:48.797Z,16.80
2018-09-25T10:58:21.952Z,16.62
2018-09-25T11:00:55.062Z,16.66
2018-09-25T11:03:28.293Z,16.89
2018-09-25T11:06:01.287Z,16.91
2018-09-25T11:08:34.471Z,16.75
2018-09-25T11:11:07.586Z,16.74
2018-09-25T11:13:40.823Z,16.64
2018-09-25T11:16:14.058Z,16.57
2018-09-25T11:18:47.347Z,16.25
2018-09-25T11:21:20.573Z,16.12
2018-09-25T11:23:53.643Z,16.08
2018-09-25T11:26:26.860Z,16.06
2018-09-25T11:29:00.410Z,16.09
2018-09-25T11:31:33.521Z,15.83
2018-09-25T11:34:06.830Z,15.82
2018-09-25T11:36:40.227Z,15.81
2018-09-25T11:39:13.673Z,15.92
2018-09-25T11:41:46.977Z,15.75
2018-09-25T11:44:20.090Z,15.43
2018-09-25T11:46:53.408Z,15.34
2018-09-25T11:49:26.392Z,15.50
2018-09-25T11:51:59.644Z,15.63
2018-09-25T11:54:35.762Z,15.72
2018-09-25T11:57:08.775Z,15.83
2018-09-25T11:59:41.899Z,15.94
2018-09-25T12:02:15.288Z,15.93
2018-09-25T12:04:48.266Z,15.60
2018-09-25T12:07:21.601Z,15.32
2018-09-25T12:09:54.723Z,15.30
2018-09-25T12:12:27.968Z,15.42
2018-09-25T12:15:01.141Z,15.49
2018-09-25T12:17:34.230Z,15.62
2018-09-25T12:20:07.291Z,15.67
2018-09-25T12:22:40.349Z,15.70
2018-09-25T12:25:13.547Z,15.79
2018-09-25T12:27:46.809Z,15.83
2018-09-25T12:30:19.888Z,15.81
2018-09-25T12:32:52.956Z,15.72
2018-09-25T12:35:26.169Z,15.64
2018-09-25T12:37:59.396Z,15.54
2018-09-25T12:40:32.613Z,15.73
2018-09-25T12:43:05.788Z,15.87
2018-09-25T12:45:38.872Z,16.11
2018-09-25T12:48:11.902Z,16.16
2018-09-25T12:50:45.071Z,16.16
2018-09-25T12:53:18.325Z,15.81
2018-09-25T12:55:51.517Z,15.57
2018-09-25T12:58:24.630Z,15.36
2018-09-25T13:00:57.697Z,15.36
2018-09-25T13:03:30.987Z,15.46
2018-09-25T13:06:04.074Z,15.58
2018-09-25T13:08:37.276Z,15.72
2018-09-25T13:11:10.593Z,15.80
2018-09-25T13:13:43.720Z,15.96
2018-09-25T13:16:16.813Z,16.10
2018-09-25T13:18:50.058Z,16.12
2018-09-25T13:21:23.083Z,16.14
2018-09-25T13:23:56.160Z,16.15
2018-09-25T13:26:29.081Z,16.02
2018-09-25T13:29:02.321Z,15.84
2018-09-25T13:31:35.476Z,15.82
2018-09-25T13:34:08.533Z,15.84
2018-09-25T13:36:41.714Z,15.92
2018-09-25T13:39:14.926Z,16.01
2018-09-25T13:41:48.311Z,16.28
2018-09-25T13:44:21.434Z,16.48
2018-09-25T13:46:54.627Z,16.66
2018-09-25T13:49:27.874Z,16.69
2018-09-25T13:52:00.887Z,16.79
2018-09-25T13:54:33.873Z,16.83
2018-09-25T13:57:07.092Z,16.63
2018-09-25T13:59:40.184Z,16.31
2018-09-25T14:02:13.242Z,16.11
2018-09-25T14:04:46.455Z,15.93
2018-09-25T14:07:19.518Z,15.70
2018-09-25T14:09:52.780Z,15.52
2018-09-25T14:12:26.063Z,15.40
2018-09-25T14:14:59.241Z,15.39
2018-09-25T14:17:32.421Z,15.51
2018-09-25T14:20:06.548Z,15.73
2018-09-25T14:22:39.761Z,15.85
2018-09-25T14:25:12.949Z,16.06
2018-09-25T14:27:46.159Z,16.28
2018-09-25T14:30:19.360Z,16.32
2018-09-25T14:32:52.631Z,16.31
2018-09-25T14:35:26.455Z,16.26
2018-09-25T14:37:59.807Z,16.30
2018-09-25T14:40:32.935Z,16.30
2018-09-25T14:43:06.218Z,16.36
2018-09-25T14:45:39.643Z,16.57
2018-09-25T14:48:12.776Z,16.61
2018-09-25T14:50:45.834Z,16.63
2018-09-25T14:53:19.031Z,16.62
2018-09-25T14:55:52.249Z,16.52
2018-09-25T14:58:25.173Z,16.57
2018-09-25T15:00:58.317Z,16.66
2018-09-25T15:03:31.484Z,16.74
2018-09-25T15:06:04.615Z,16.84
2018-09-25T15:08:37.679Z,16.84
2018-09-25T15:11:10.854Z,16.71
2018-09-25T15:13:44.053Z,16.70
2018-09-25T15:16:17.169Z,16.52
2018-09-25T15:18:50.337Z,16.48
2018-09-25T15:21:23.641Z,16.42
2018-09-25T15:23:56.645Z,16.24
2018-09-25T15:26:29.797Z,16.05
2018-09-25T15:29:02.821Z,15.93
2018-09-25T15:31:35.938Z,15.88
2018-09-25T15:34:09.091Z,15.78
2018-09-25T15:36:42.340Z,15.74
2018-09-25T15:39:15.455Z,15.70
2018-09-25T15:41:48.570Z,15.67
2018-09-25T15:44:21.632Z,15.62
2018-09-25T15:46:54.775Z,15.54
2018-09-25T15:49:27.768Z,15.45
2018-09-25T15:52:00.908Z,15.30
2018-09-25T15:54:34.062Z,15.22
2018-09-25T15:57:07.329Z,15.19
2018-09-25T15:59:40.443Z,15.09
2018-09-25T16:02:13.752Z,14.96
2018-09-25T16:04:47.666Z,14.87
2018-09-25T16:07:20.921Z,14.80
2018-09-25T16:09:54.092Z,14.73
2018-09-25T16:12:27.241Z,14.74
2018-09-25T16:15:00.346Z,14.74
2018-09-25T16:17:33.559Z,14.79
2018-09-25T16:20:06.668Z,14.75
2018-09-25T16:22:40.684Z,14.62
2018-09-25T16:25:15.103Z,14.55
2018-09-25T16:27:49.169Z,14.72
2018-09-25T16:30:22.361Z,14.52
2018-09-25T16:32:55.744Z,14.40
2018-09-25T16:35:29.022Z,14.27
2018-09-25T16:38:02.113Z,14.20
2018-09-25T16:40:35.501Z,14.16
2018-09-25T16:43:10.461Z,14.02
2018-09-25T16:45:44.749Z,13.84
2018-09-25T16:48:18.248Z,13.85
2018-09-25T16:50:51.607Z,13.70
2018-09-25T16:53:25.015Z,13.61
2018-09-25T16:55:58.442Z,13.65
2018-09-25T16:58:31.690Z,13.57
2018-09-25T17:01:05.182Z,13.72
2018-09-25T17:03:38.405Z,13.63
2018-09-25T17:06:11.697Z,13.56
2018-09-25T17:08:44.834Z,13.53
2018-09-25T17:11:18.217Z,13.38
2018-09-25T17:13:51.497Z,13.44
2018-09-25T17:16:24.835Z,13.39
2018-09-25T17:18:58.370Z,13.39
2018-09-25T17:21:31.777Z,13.20
2018-09-25T17:24:04.948Z,13.21
2018-09-25T17:26:38.253Z,13.25
2018-09-25T17:29:11.758Z,13.13
2018-09-25T17:31:45.011Z,12.90
2018-09-25T17:34:18.042Z,13.00
2018-09-25T17:36:51.451Z,12.88
2018-09-25T17:39:33.508Z,12.92
2018-09-25T17:42:08.231Z,12.94
2018-09-25T17:44:41.624Z,12.91
2018-09-25T17:47:15.275Z,12.90
2018-09-25T17:49:48.722Z,12.80
2018-09-25T17:52:21.923Z,12.70
2018-09-25T17:54:56.036Z,12.75
2018-09-25T17:57:36.286Z,12.63
2018-09-25T18:00:10.679Z,12.62
2018-09-25T18:02:43.844Z,12.54
2018-09-25T18:05:17.179Z,12.34
2018-09-25T18:07:50.548Z,12.21
2018-09-25T18:10:23.922Z,12.18
2018-09-25T18:12:57.083Z,12.38
2018-09-25T18:15:30.132Z,12.39
2018-09-25T18:18:03.131Z,12.26
2018-09-25T18:20:36.249Z,12.16
2018-09-25T18:23:09.459Z,12.05
2018-09-25T18:25:42.741Z,11.91
2018-09-25T18:28:15.971Z,11.80
2018-09-25T18:30:49.067Z,11.79
2018-09-25T18:33:22.369Z,11.84
2018-09-25T18:35:55.622Z,11.75
2018-09-25T18:38:29.016Z,11.72
2018-09-25T18:41:02.339Z,11.57
2018-09-25T18:43:35.428Z,11.74
2018-09-25T18:46:08.450Z,11.83
2018-09-25T18:48:41.579Z,11.85
2018-09-25T18:51:14.763Z,12.06
2018-09-25T18:53:48.066Z,12.06
2018-09-25T18:56:21.263Z,12.33
2018-09-25T18:58:54.413Z,12.43
2018-09-25T19:01:27.679Z,12.35
2018-09-25T19:04:00.709Z,12.22
2018-09-25T19:06:33.846Z,12.27
2018-09-25T19:09:07.268Z,12.16
2018-09-25T19:11:40.450Z,11.95
2018-09-25T19:14:13.859Z,11.87
2018-09-25T19:16:46.890Z,11.97
2018-09-25T19:19:20.067Z,11.94
2018-09-25T19:21:53.356Z,11.83
2018-09-25T19:24:26.572Z,11.89
2018-09-25T19:26:59.818Z,11.83
2018-09-25T19:29:32.864Z,11.91
2018-09-25T19:32:06.107Z,11.97
2018-09-25T19:34:39.153Z,11.89
2018-09-25T19:37:12.423Z,11.90
2018-09-25T19:39:45.428Z,11.82
2018-09-25T19:42:18.759Z,11.89
2018-09-25T19:44:51.909Z,11.83
2018-09-25T19:47:24.927Z,11.80
2018-09-25T19:49:58.067Z,11.75
2018-09-25T19:52:31.385Z,11.80
2018-09-25T19:55:04.619Z,11.76
2018-09-25T19:57:37.814Z,11.83
2018-09-25T20:00:11.480Z,11.84
2018-09-25T20:02:44.715Z,11.79
2018-09-25T20:05:17.979Z,11.71
2018-09-25T20:07:51.618Z,11.59
2018-09-25T20:10:24.967Z,11.49
2018-09-25T20:12:58.378Z,11.36
2018-09-25T20:15:31.798Z,11.34
2018-09-25T20:18:05.084Z,11.32
2018-09-25T20:20:38.341Z,11.13
2018-09-25T20:23:11.722Z,11.09
2018-09-25T20:25:44.910Z,10.99
2018-09-25T20:28:18.254Z,10.94
2018-09-25T20:30:51.406Z,10.82
2018-09-25T20:33:24.638Z,10.59
2018-09-25T20:35:57.530Z,10.35
2018-09-25T20:38:30.671Z,10.16
2018-09-25T20:41:03.948Z,9.98
2018-09-25T20:43:37.170Z,9.79
2018-09-25T20:46:10.127Z,9.67
2018-09-25T20:48:43.294Z,9.56
2018-09-25T20:51:23.190Z,9.44
2018-09-25T20:53:56.398Z,9.34
2018-09-25T20:56:29.441Z,9.24
2018-09-25T20:59:02.640Z,9.11
2018-09-25T21:01:35.914Z,9.04
2018-09-25T21:04:09.482Z,8.97
2018-09-25T21:06:42.489Z,8.92
2018-09-25T21:09:15.743Z,8.88
2018-09-25T21:11:48.767Z,8.83
2018-09-25T21:14:21.920Z,8.85
2018-09-25T21:16:55.206Z,8.84
2018-09-25T21:19:28.447Z,8.88
2018-09-25T21:22:01.538Z,8.82
2018-09-25T21:24:34.783Z,8.78
2018-09-25T21:27:08.018Z,8.74
2018-09-25T21:29:41.214Z,8.76
2018-09-25T21:32:14.335Z,8.81
2018-09-25T21:34:47.370Z,8.86
2018-09-25T21:37:20.484Z,8.86
2018-09-25T21:39:53.622Z,8.80
2018-09-25T21:42:26.848Z,8.74
2018-09-25T21:45:00.049Z,8.63
2018-09-25T21:47:33.114Z,8.56
2018-09-25T21:50:06.329Z,8.49
2018-09-25T21:52:39.494Z,8.43
2018-09-25T21:55:12.696Z,8.32
2018-09-25T21:57:45.767Z,8.26
2018-09-25T22:00:18.990Z,8.23
2018-09-25T22:02:52.115Z,8.20
2018-09-25T22:05:25.246Z,8.16
2018-09-25T22:07:58.451Z,8.12
2018-09-25T22:10:31.523Z,8.06
2018-09-25T22:13:04.709Z,8.00
2018-09-25T22:15:37.907Z,7.95
2018-09-25T22:18:11.000Z,7.90
2018-09-25T22:20:44.114Z,7.88
2018-09-25T22:23:17.277Z,7.82
2018-09-25T22:25:50.415Z,7.77
2018-09-25T22:28:23.528Z,7.77
2018-09-25T22:30:56.782Z,7.79
2018-09-25T22:33:30.057Z,7.79
2018-09-25T22:36:03.248Z,7.78
2018-09-25T22:38:36.493Z,7.73
2018-09-25T22:41:09.778Z,7.71
2018-09-25T22:43:42.802Z,7.67
2018-09-25T22:46:15.879Z,7.68
2018-09-25T22:48:48.962Z,7.70
2018-09-25T22:51:22.148Z,7.76
2018-09-25T22:53:55.352Z,7.83
2018-09-25T22:56:28.524Z,7.89
2018-09-25T22:59:01.730Z,7.91
2018-09-25T23:01:34.946Z,7.92
2018-09-25T23:04:08.175Z,7.92
2018-09-25T23:06:41.364Z,7.96
2018-09-25T23:09:14.657Z,7.97
2018-09-25T23:11:47.929Z,7.94
2018-09-25T23:14:21.087Z,7.93
2018-09-25T23:16:54.306Z,7.88
2018-09-25T23:19:27.492Z,7.84
2018-09-25T23:22:00.685Z,7.79
2018-09-25T23:24:33.910Z,7.76
2018-09-25T23:27:07.079Z,7.71
2018-09-25T23:29:40.240Z,7.70
2018-09-25T23:32:13.494Z,7.66
2018-09-25T23:34:46.549Z,7.63
2018-09-25T23:37:19.746Z,7.58
2018-09-25T23:41:58.805Z,7.56
2018-09-25T23:44:31.900Z,7.44
2018-09-25T23:47:04.749Z,7.45
2018-09-25T23:51:43.770Z,7.39
2018-09-25T23:54:20.034Z,7.23
2018-09-25T23:56:53.621Z,7.16
2018-09-25T23:59:29.550Z,7.09
